Ferdinand, Idaho
Current Conditions -  °F | °C
As of 5:15 PM on Friday 28 Nov 2014 (Local Time) from KGIC Reporting Station
Broken Clouds Broken Clouds  
Wind Chill:   Ceiling: 11000
Heat Index: 10°   Visibility: 10mi
Dew Point: -1°   Wind: 25mph
Humidity: 47%   Direction: 210°SSW
Pressure: 29.49"   Gusts: 32mph
Location:  46.15°N, 116.39°W
Report Text: KGIC 290115Z AUTO 21022G28KT 10SM SCT050 SCT060 BKN110 10/M01 A2949 RMK AO1 T00961012
Loading
Personal Weather Stations






























Interactive Weather Map New forecast layout! Learn more

10-Day Weather Forecast

Advertisements
Track Severe Weather on mobile